createdAt,value
2018-02-22T00:02:04.472Z,14.33
2018-02-22T00:04:30.764Z,12.83
2018-02-22T00:06:57.075Z,14.07
2018-02-22T00:09:23.359Z,15.13
2018-02-22T00:11:49.643Z,17.53
2018-02-22T00:14:16.697Z,16.20
2018-02-22T00:16:43.053Z,14.33
2018-02-22T00:19:09.729Z,14.87
2018-02-22T00:21:36.026Z,13.50
2018-02-22T00:24:02.350Z,15.13
2018-02-22T00:26:28.662Z,15.13
2018-02-22T00:28:54.988Z,15.80
2018-02-22T00:31:22.022Z,14.47
2018-02-22T00:33:49.072Z,14.03
2018-02-22T00:36:16.097Z,16.00
2018-02-22T00:38:42.373Z,15.30
2018-02-22T00:41:08.742Z,15.80
2018-02-22T00:43:35.030Z,15.43
2018-02-22T00:46:01.353Z,15.17
2018-02-22T00:48:27.635Z,17.03
2018-02-22T00:50:53.921Z,16.60
2018-02-22T00:53:20.192Z,16.03
2018-02-22T00:55:46.485Z,16.30
2018-02-22T00:58:12.766Z,17.83
2018-02-22T01:00:39.352Z,17.37
2018-02-22T01:03:05.649Z,17.70
2018-02-22T01:05:31.962Z,20.37
2018-02-22T01:07:58.241Z,17.40
2018-02-22T01:10:24.550Z,17.43
2018-02-22T01:12:50.885Z,18.27
2018-02-22T01:15:17.209Z,17.20
2018-02-22T01:17:44.252Z,16.87
2018-02-22T01:20:11.304Z,17.63
2018-02-22T01:22:37.582Z,17.70
2018-02-22T01:25:03.864Z,17.97
2018-02-22T01:27:30.240Z,16.40
2018-02-22T01:29:56.525Z,15.07
2018-02-22T01:32:22.820Z,15.80
2018-02-22T01:34:49.126Z,16.83
2018-02-22T01:37:15.424Z,16.70
2018-02-22T01:39:41.706Z,17.33
2018-02-22T01:42:08.021Z,16.90
2018-02-22T01:44:34.339Z,16.47
2018-02-22T01:47:00.635Z,16.53
2018-02-22T01:49:27.650Z,16.27
2018-02-22T01:51:53.935Z,16.47
2018-02-22T01:54:20.217Z,15.83
2018-02-22T01:56:47.287Z,17.57
2018-02-22T01:59:14.324Z,16.70
2018-02-22T02:01:41.352Z,16.40
2018-02-22T02:04:08.397Z,17.10
2018-02-22T02:06:35.445Z,17.97
2018-02-22T02:09:01.754Z,16.23
2018-02-22T02:11:28.080Z,16.90
2018-02-22T02:13:54.369Z,16.03
2018-02-22T02:16:20.664Z,16.53
2018-02-22T02:18:46.949Z,17.20
2018-02-22T02:21:13.253Z,16.70
2018-02-22T02:23:39.561Z,17.77
2018-02-22T02:26:05.959Z,17.57
2018-02-22T02:28:32.252Z,17.10
2018-02-22T02:30:58.547Z,18.03
2018-02-22T02:33:25.591Z,17.20
2018-02-22T02:35:51.892Z,16.87
2018-02-22T02:38:18.228Z,16.50
2018-02-22T02:40:44.889Z,17.07
2018-02-22T02:43:11.172Z,18.37
2018-02-22T02:45:37.455Z,15.93
2018-02-22T02:48:03.758Z,17.53
2018-02-22T02:50:30.051Z,18.30
2018-02-22T02:52:56.366Z,18.03
2018-02-22T02:55:23.392Z,19.40
2018-02-22T02:57:50.451Z,17.70
2018-02-22T03:00:17.505Z,18.20
2018-02-22T03:02:43.816Z,16.63
2018-02-22T03:05:10.863Z,18.97
2018-02-22T03:07:37.881Z,18.77
2018-02-22T03:10:04.181Z,20.70
2018-02-22T03:12:30.483Z,20.50
2018-02-22T03:14:57.570Z,21.37
2018-02-22T03:17:23.837Z,21.73
2018-02-22T03:19:50.120Z,20.67
2018-02-22T03:22:16.421Z,20.80
2018-02-22T03:24:42.727Z,21.60
2018-02-22T03:27:08.997Z,21.50
2018-02-22T03:29:35.283Z,20.77
2018-02-22T03:32:01.603Z,21.33
2018-02-22T03:34:27.890Z,23.07
2018-02-22T03:36:54.183Z,20.70
2018-02-22T03:39:20.462Z,19.10
2018-02-22T03:41:46.761Z,21.53
2018-02-22T03:44:13.822Z,19.90
2018-02-22T03:46:40.108Z,19.73
2018-02-22T03:49:06.396Z,20.87
2018-02-22T03:51:32.691Z,23.30
2018-02-22T03:53:58.976Z,23.13
2018-02-22T03:56:25.266Z,20.90
2018-02-22T03:58:51.557Z,22.77
2018-02-22T04:01:17.858Z,20.13
2018-02-22T04:03:44.371Z,21.90
2018-02-22T04:06:10.672Z,20.43
2018-02-22T04:08:36.967Z,20.73
2018-02-22T04:11:03.275Z,21.83
2018-02-22T04:13:29.568Z,22.07
2018-02-22T04:15:55.887Z,20.03
2018-02-22T04:18:22.910Z,22.47
2018-02-22T04:20:49.997Z,21.50
2018-02-22T04:23:16.292Z,21.27
2018-02-22T04:25:43.368Z,22.50
2018-02-22T04:28:09.683Z,22.83
2018-02-22T04:30:36.720Z,22.80
2018-02-22T04:33:03.768Z,21.80
2018-02-22T04:35:30.815Z,23.53
2018-02-22T04:37:58.570Z,23.10
2018-02-22T04:40:25.628Z,23.23
2018-02-22T04:42:52.671Z,23.87
2018-02-22T04:45:19.713Z,22.73
2018-02-22T04:47:45.992Z,22.03
2018-02-22T04:50:12.281Z,23.00
2018-02-22T04:52:39.312Z,20.93
2018-02-22T04:55:05.606Z,20.57
2018-02-22T04:57:31.925Z,21.27
2018-02-22T04:59:58.233Z,21.17
2018-02-22T05:02:25.288Z,20.63
2018-02-22T05:04:52.312Z,21.30
2018-02-22T05:07:19.376Z,20.10
2018-02-22T05:09:46.437Z,21.00
2018-02-22T05:12:12.734Z,20.00
2018-02-22T05:14:39.029Z,21.20
2018-02-22T05:17:05.349Z,21.37
2018-02-22T05:19:31.654Z,19.93
2018-02-22T05:21:57.952Z,20.67
2018-02-22T05:24:24.998Z,20.67
2018-02-22T05:26:52.041Z,21.30
2018-02-22T05:29:19.074Z,21.73
2018-02-22T05:31:45.378Z,21.30
2018-02-22T05:34:11.682Z,19.90
2018-02-22T05:36:37.997Z,19.97
2018-02-22T05:39:05.036Z,20.70
2018-02-22T05:41:32.098Z,24.60
2018-02-22T05:43:59.126Z,24.40
2018-02-22T05:46:26.204Z,23.23
2018-02-22T05:48:52.495Z,22.63
2018-02-22T05:51:18.782Z,23.37
2018-02-22T05:53:45.086Z,22.53
2018-02-22T05:56:12.120Z,21.70
2018-02-22T05:58:39.176Z,22.23
2018-02-22T06:01:05.477Z,21.63
2018-02-22T06:03:31.782Z,22.93
2018-02-22T06:05:58.167Z,22.20
2018-02-22T06:08:25.227Z,22.97
2018-02-22T06:10:51.529Z,20.03
2018-02-22T06:13:18.581Z,21.80
2018-02-22T06:15:45.609Z,21.77
2018-02-22T06:18:12.675Z,21.90
2018-02-22T06:20:39.710Z,22.57
2018-02-22T06:23:06.005Z,22.30
2018-02-22T06:25:32.317Z,23.30
2018-02-22T06:27:58.604Z,20.97
2018-02-22T06:30:25.672Z,19.67
2018-02-22T06:32:52.727Z,20.70
2018-02-22T06:35:19.026Z,20.57
2018-02-22T06:37:45.325Z,20.37
2018-02-22T06:40:11.634Z,22.50
2018-02-22T06:42:37.914Z,20.80
2018-02-22T06:45:04.960Z,21.10
2018-02-22T06:47:31.254Z,22.10
2018-02-22T06:49:57.573Z,22.50
2018-02-22T06:52:23.857Z,21.67
2018-02-22T06:54:50.191Z,21.87
2018-02-22T06:57:17.209Z,23.40
2018-02-22T06:59:43.582Z,21.33
2018-02-22T07:02:10.588Z,22.90
2018-02-22T07:04:36.898Z,23.17
2018-02-22T07:07:03.205Z,23.30
2018-02-22T07:09:29.527Z,23.40
2018-02-22T07:11:55.933Z,21.80
2018-02-22T07:14:22.969Z,23.03
2018-02-22T07:16:56.292Z,24.97
2018-02-22T07:19:23.351Z,23.50
2018-02-22T07:21:49.650Z,24.00
2018-02-22T07:24:16.689Z,23.87
2018-02-22T07:26:43.021Z,23.50
2018-02-22T07:29:09.303Z,25.20
2018-02-22T07:31:35.569Z,23.23
2018-02-22T07:34:01.878Z,22.87
2018-02-22T07:36:28.163Z,25.40
2018-02-22T07:38:55.190Z,25.67
2018-02-22T07:41:22.233Z,25.70
2018-02-22T07:43:48.521Z,25.73
2018-02-22T07:46:14.827Z,25.90
2018-02-22T07:48:41.107Z,25.60
2018-02-22T07:51:07.402Z,23.47
2018-02-22T07:53:33.711Z,24.70
2018-02-22T07:56:00.020Z,25.67
2018-02-22T07:58:27.052Z,23.83
2018-02-22T08:00:53.356Z,23.47
2018-02-22T08:03:19.629Z,24.43
2018-02-22T08:05:46.677Z,24.93
2018-02-22T08:08:13.705Z,25.10
2018-02-22T08:10:40.025Z,23.53
2018-02-22T08:13:06.299Z,24.70
2018-02-22T08:15:32.608Z,27.00
2018-02-22T08:17:58.901Z,27.23
2018-02-22T08:20:25.217Z,26.90
2018-02-22T08:22:51.547Z,25.30
2018-02-22T08:25:17.854Z,27.43
2018-02-22T08:27:44.162Z,26.97
2018-02-22T08:30:11.198Z,28.87
2018-02-22T08:32:38.247Z,30.07
2018-02-22T08:35:05.408Z,29.60
2018-02-22T08:37:32.447Z,28.47
2018-02-22T08:39:59.488Z,30.80
2018-02-22T08:42:26.539Z,30.30
2018-02-22T08:44:53.601Z,31.60
2018-02-22T08:47:20.636Z,30.37
2018-02-22T08:49:47.673Z,30.37
2018-02-22T08:52:14.725Z,32.00
2018-02-22T08:54:41.753Z,31.40
2018-02-22T08:57:08.064Z,30.77
2018-02-22T08:59:34.352Z,32.33
2018-02-22T09:02:00.667Z,31.80
2018-02-22T09:04:27.689Z,32.80
2018-02-22T09:06:53.995Z,30.67
2018-02-22T09:09:20.288Z,31.27
2018-02-22T09:11:46.580Z,28.73
2018-02-22T09:14:12.887Z,31.57
2018-02-22T09:16:39.182Z,31.10
2018-02-22T09:19:05.535Z,30.77
2018-02-22T09:21:31.834Z,29.40
2018-02-22T09:23:58.881Z,30.47
2018-02-22T09:26:25.174Z,31.17
2018-02-22T09:28:51.469Z,30.40
2018-02-22T09:31:17.788Z,30.00
2018-02-22T09:33:44.092Z,29.77
2018-02-22T09:36:11.147Z,29.90
2018-02-22T09:38:37.461Z,30.40
2018-02-22T09:41:04.485Z,29.90
2018-02-22T09:43:30.795Z,30.60
2018-02-22T09:45:57.082Z,30.00
2018-02-22T09:48:24.126Z,30.60
2018-02-22T09:50:51.148Z,28.67
2018-02-22T09:53:18.189Z,28.90
2018-02-22T09:55:44.495Z,29.43
2018-02-22T09:58:10.847Z,29.87
2018-02-22T10:00:37.180Z,29.50
2018-02-22T10:03:03.523Z,29.37
2018-02-22T10:05:30.566Z,30.73
2018-02-22T10:07:57.598Z,27.80
2018-02-22T10:10:24.191Z,30.50
2018-02-22T10:12:50.525Z,30.20
2018-02-22T10:15:16.822Z,27.43
2018-02-22T10:17:43.973Z,29.47
2018-02-22T10:20:11.034Z,28.77
2018-02-22T10:22:37.324Z,29.23
2018-02-22T10:25:03.635Z,30.27
2018-02-22T10:27:29.949Z,30.73
2018-02-22T10:29:56.276Z,30.73
2018-02-22T10:32:22.606Z,29.67
2018-02-22T10:34:48.932Z,29.60
2018-02-22T10:37:15.214Z,30.60
2018-02-22T10:39:41.529Z,27.80
2018-02-22T10:42:07.862Z,30.00
2018-02-22T10:44:34.191Z,31.33
2018-02-22T10:47:00.518Z,30.93
2018-02-22T10:49:26.848Z,29.97
2018-02-22T10:51:53.178Z,31.07
2018-02-22T10:54:19.516Z,30.37
2018-02-22T10:56:45.833Z,32.13
2018-02-22T10:59:12.106Z,31.47
2018-02-22T11:01:45.165Z,31.33
2018-02-22T11:04:11.488Z,32.07
2018-02-22T11:06:37.810Z,32.03
2018-02-22T11:09:04.096Z,30.87
2018-02-22T11:11:30.396Z,30.97
2018-02-22T11:13:56.702Z,32.17
2018-02-22T11:16:22.992Z,31.23
2018-02-22T11:18:49.273Z,34.20
2018-02-22T11:21:15.570Z,33.10
2018-02-22T11:23:41.866Z,33.20
2018-02-22T11:26:08.912Z,35.10
2018-02-22T11:28:35.953Z,33.30
2018-02-22T11:31:03.015Z,32.20
2018-02-22T11:33:29.316Z,32.37
2018-02-22T11:35:56.365Z,30.77
2018-02-22T11:38:23.655Z,30.10
2018-02-22T11:40:49.944Z,29.80
2018-02-22T11:43:16.995Z,31.00
2018-02-22T11:45:44.030Z,32.27
2018-02-22T11:48:10.332Z,30.67
2018-02-22T11:50:36.603Z,34.03
2018-02-22T11:53:03.667Z,34.83
2018-02-22T11:55:30.685Z,35.03
2018-02-22T11:57:56.991Z,35.77
2018-02-22T12:00:23.334Z,35.17
2018-02-22T12:02:49.646Z,36.90
2018-02-22T12:05:15.928Z,34.67
2018-02-22T12:07:42.951Z,36.47
2018-02-22T12:10:09.238Z,37.00
2018-02-22T12:12:35.524Z,34.93
2018-02-22T12:15:02.592Z,38.60
2018-02-22T12:17:28.901Z,36.37
2018-02-22T12:19:55.940Z,38.67
2018-02-22T12:22:22.234Z,40.07
2018-02-22T12:24:48.542Z,36.30
2018-02-22T12:27:14.838Z,36.30
2018-02-22T12:29:41.873Z,37.53
2018-02-22T12:32:08.162Z,39.70
2018-02-22T12:34:34.557Z,39.30
2018-02-22T12:37:01.593Z,38.83
2018-02-22T12:39:27.874Z,38.70
2018-02-22T12:41:54.150Z,37.17
2018-02-22T12:44:20.464Z,37.77
2018-02-22T12:46:46.745Z,41.40
2018-02-22T12:49:13.038Z,38.50
2018-02-22T12:51:39.311Z,39.70
2018-02-22T12:54:05.594Z,39.50
2018-02-22T12:56:32.890Z,40.77
2018-02-22T12:58:59.460Z,38.50
2018-02-22T13:01:25.759Z,37.93
2018-02-22T13:03:52.059Z,37.57
2018-02-22T13:06:19.089Z,39.63
2018-02-22T13:08:45.426Z,36.70
2018-02-22T13:11:12.459Z,32.70
2018-02-22T13:13:38.720Z,33.20
2018-02-22T13:16:05.018Z,33.07
2018-02-22T13:18:31.312Z,30.80
2018-02-22T13:20:57.598Z,28.33
2018-02-22T13:23:24.633Z,29.20
2018-02-22T13:25:50.940Z,29.93
2018-02-22T13:28:17.227Z,27.07
2018-02-22T13:30:43.569Z,27.70
2018-02-22T13:33:22.164Z,25.93
2018-02-22T13:35:48.442Z,26.80
2018-02-22T13:38:26.969Z,26.70
2018-02-22T13:40:54.038Z,25.50
2018-02-22T13:43:21.056Z,26.37
2018-02-22T13:45:47.342Z,24.40
2018-02-22T13:48:13.619Z,25.43
2018-02-22T13:50:52.338Z,25.33
2018-02-22T13:53:18.584Z,25.53
2018-02-22T13:55:45.649Z,25.13
2018-02-22T13:58:11.957Z,23.60
2018-02-22T14:00:50.717Z,25.10
2018-02-22T14:03:17.711Z,23.10
2018-02-22T14:05:44.766Z,25.57
2018-02-22T14:08:23.433Z,23.47
2018-02-22T14:10:50.432Z,22.50
2018-02-22T14:13:16.719Z,23.10
2018-02-22T14:15:43.042Z,23.07
2018-02-22T14:18:09.316Z,23.83
2018-02-22T14:20:35.591Z,23.17
2018-02-22T14:23:01.894Z,24.20
2018-02-22T14:25:28.916Z,23.83
2018-02-22T14:27:55.201Z,22.60
2018-02-22T14:30:21.490Z,22.03
2018-02-22T14:32:47.777Z,23.47
2018-02-22T14:35:14.052Z,23.93
2018-02-22T14:37:41.097Z,25.30
2018-02-22T14:40:07.370Z,24.97
2018-02-22T14:42:33.672Z,24.83
2018-02-22T14:45:00.705Z,26.23
2018-02-22T14:47:28.477Z,24.80
2018-02-22T14:49:55.501Z,27.40
2018-02-22T14:52:21.802Z,28.07
2018-02-22T14:54:48.076Z,27.30
2018-02-22T14:57:15.128Z,27.00
2018-02-22T14:59:41.417Z,26.70
2018-02-22T15:02:07.715Z,24.27
2018-02-22T15:04:41.575Z,24.40
2018-02-22T15:07:08.647Z,24.93
2018-02-22T15:09:35.684Z,25.50
2018-02-22T15:12:02.718Z,26.07
2018-02-22T15:14:29.050Z,25.20
2018-02-22T15:16:56.102Z,25.40
2018-02-22T15:19:22.502Z,27.40
2018-02-22T15:21:48.786Z,26.10
2018-02-22T15:24:15.098Z,26.40
2018-02-22T15:26:41.394Z,26.80
2018-02-22T15:29:07.717Z,26.70
2018-02-22T15:31:34.004Z,27.43
2018-02-22T15:34:00.327Z,26.00
2018-02-22T15:36:26.646Z,26.87
2018-02-22T15:38:52.947Z,28.13
2018-02-22T15:41:19.262Z,27.97
2018-02-22T15:43:45.568Z,26.87
2018-02-22T15:46:11.852Z,26.40
2018-02-22T15:48:38.153Z,25.63
2018-02-22T15:51:04.567Z,26.30
2018-02-22T15:53:30.886Z,25.80
2018-02-22T15:55:57.177Z,26.17
2018-02-22T15:58:23.493Z,23.50
2018-02-22T16:00:49.795Z,22.87
2018-02-22T16:03:16.112Z,20.97
2018-02-22T16:05:42.396Z,20.40
2018-02-22T16:08:08.978Z,19.90
2018-02-22T16:10:35.301Z,17.70
2018-02-22T16:13:02.414Z,16.17
2018-02-22T16:15:28.730Z,16.40
2018-02-22T16:17:55.003Z,16.40
2018-02-22T16:20:21.314Z,14.93
2018-02-22T16:22:48.347Z,14.83
2018-02-22T16:25:14.651Z,13.70
2018-02-22T16:27:40.963Z,12.80
2018-02-22T16:30:07.248Z,12.67
2018-02-22T16:32:34.269Z,11.80
2018-02-22T16:35:00.584Z,10.60
2018-02-22T16:37:26.878Z,11.03
2018-02-22T16:39:53.186Z,9.43
2018-02-22T16:42:20.230Z,8.93
2018-02-22T16:44:46.539Z,9.37
2018-02-22T16:47:13.603Z,8.50
2018-02-22T16:49:40.663Z,8.63
2018-02-22T16:52:07.705Z,7.40
2018-02-22T16:54:34.761Z,6.97
2018-02-22T16:57:01.080Z,7.23
2018-02-22T16:59:28.151Z,6.60
2018-02-22T17:01:54.458Z,6.07
2018-02-22T17:04:20.730Z,6.47
2018-02-22T17:06:47.030Z,6.87
2018-02-22T17:09:14.054Z,6.83
2018-02-22T17:11:40.353Z,7.13
2018-02-22T17:14:06.678Z,8.73
2018-02-22T17:16:32.982Z,8.07
2018-02-22T17:18:59.266Z,6.67
2018-02-22T17:21:25.557Z,6.33
2018-02-22T17:23:51.859Z,6.67
2018-02-22T17:26:25.031Z,5.80
2018-02-22T17:28:58.296Z,5.37
2018-02-22T17:31:30.780Z,5.57
2018-02-22T17:33:57.053Z,5.80
2018-02-22T17:36:30.411Z,5.90
2018-02-22T17:39:15.580Z,5.17
2018-02-22T17:41:42.767Z,5.70
2018-02-22T17:44:09.852Z,5.80
2018-02-22T17:46:36.158Z,5.90
2018-02-22T17:49:02.477Z,5.70
2018-02-22T17:51:29.517Z,6.53
2018-02-22T17:53:55.807Z,7.20
2018-02-22T17:56:22.101Z,7.90
2018-02-22T17:58:48.397Z,9.33
2018-02-22T18:01:18.383Z,8.80
2018-02-22T18:03:44.709Z,10.77
2018-02-22T18:06:11.017Z,9.90
2018-02-22T18:08:37.309Z,7.00
2018-02-22T18:11:04.365Z,6.00
2018-02-22T18:13:30.649Z,6.43
2018-02-22T18:15:56.978Z,6.63
2018-02-22T18:18:23.295Z,7.43
2018-02-22T18:20:49.715Z,8.30
2018-02-22T18:23:16.021Z,9.40
2018-02-22T18:25:42.380Z,9.37
2018-02-22T18:28:08.682Z,9.70
2018-02-22T18:30:34.993Z,10.10
2018-02-22T18:33:02.058Z,9.30
2018-02-22T18:35:28.357Z,9.20
2018-02-22T18:37:58.590Z,8.37
2018-02-22T18:40:31.809Z,9.00
2018-02-22T18:42:58.154Z,7.10
2018-02-22T18:45:24.488Z,7.60
2018-02-22T18:47:50.774Z,7.93
2018-02-22T18:50:17.792Z,8.00
2018-02-22T18:52:44.082Z,7.47
2018-02-22T18:55:10.367Z,8.13
2018-02-22T18:57:43.776Z,7.70
2018-02-22T19:00:10.796Z,6.53
2018-02-22T19:02:38.572Z,7.73
2018-02-22T19:05:04.866Z,6.80
2018-02-22T19:07:31.182Z,7.57
2018-02-22T19:09:57.463Z,7.40
2018-02-22T19:12:23.784Z,7.60
2018-02-22T19:14:50.841Z,7.30
2018-02-22T19:17:17.886Z,8.00
2018-02-22T19:19:44.179Z,6.57
2018-02-22T19:22:10.464Z,7.27
2018-02-22T19:24:37.493Z,7.10
2018-02-22T19:27:04.541Z,7.07
2018-02-22T19:29:30.845Z,6.87
2018-02-22T19:31:57.134Z,7.10
2018-02-22T19:34:23.441Z,6.63
2018-02-22T19:36:50.453Z,6.47
2018-02-22T19:39:16.749Z,7.80
2018-02-22T19:41:43.046Z,7.67
2018-02-22T19:44:10.093Z,7.20
2018-02-22T19:46:37.132Z,7.23
2018-02-22T19:49:04.166Z,7.10
2018-02-22T19:51:30.582Z,6.60
2018-02-22T19:53:56.862Z,7.20
2018-02-22T19:56:23.874Z,7.70
2018-02-22T19:58:50.161Z,7.10
2018-02-22T20:01:16.597Z,7.80
2018-02-22T20:03:42.897Z,8.13
2018-02-22T20:06:09.168Z,7.33
2018-02-22T20:08:35.488Z,7.70
2018-02-22T20:11:02.001Z,7.17
2018-02-22T20:13:28.310Z,6.67
2018-02-22T20:15:55.332Z,7.40
2018-02-22T20:18:21.601Z,7.60
2018-02-22T20:20:47.941Z,7.90
2018-02-22T20:23:14.242Z,7.70
2018-02-22T20:25:41.339Z,6.90
2018-02-22T20:28:07.636Z,8.27
2018-02-22T20:30:33.969Z,7.80
2018-02-22T20:33:00.268Z,7.57
2018-02-22T20:35:27.326Z,7.27
2018-02-22T20:37:54.380Z,7.33
2018-02-22T20:40:21.420Z,7.40
2018-02-22T20:42:48.497Z,8.03
2018-02-22T20:45:14.835Z,8.30
2018-02-22T20:47:41.145Z,7.97
2018-02-22T20:50:07.483Z,7.97
2018-02-22T20:52:48.728Z,8.37
2018-02-22T20:55:16.870Z,7.87
2018-02-22T20:57:43.160Z,8.10
2018-02-22T21:00:09.494Z,8.33
2018-02-22T21:02:35.837Z,9.37
2018-02-22T21:05:02.153Z,8.10
2018-02-22T21:07:28.486Z,7.90
2018-02-22T21:09:54.872Z,9.10
2018-02-22T21:12:21.179Z,9.10
2018-02-22T21:14:47.505Z,10.10
2018-02-22T21:17:13.788Z,10.60
2018-02-22T21:19:40.830Z,9.73
2018-02-22T21:22:07.865Z,10.10
2018-02-22T21:24:34.146Z,10.63
2018-02-22T21:27:00.465Z,10.67
2018-02-22T21:29:26.768Z,11.70
2018-02-22T21:31:53.810Z,11.63
2018-02-22T21:34:20.854Z,13.03
2018-02-22T21:36:47.915Z,11.77
2018-02-22T21:39:14.944Z,12.27
2018-02-22T21:41:41.256Z,12.60
2018-02-22T21:44:07.540Z,12.83
2018-02-22T21:46:33.829Z,13.53
2018-02-22T21:49:00.885Z,14.40
2018-02-22T21:51:27.928Z,15.10
2018-02-22T21:53:54.204Z,13.27
2018-02-22T21:56:20.504Z,14.97
2018-02-22T21:58:46.809Z,13.80
2018-02-22T22:01:13.130Z,15.10
2018-02-22T22:03:39.425Z,17.27
2018-02-22T22:06:05.733Z,17.17
2018-02-22T22:08:32.058Z,16.90
2018-02-22T22:10:59.077Z,17.30
2018-02-22T22:13:25.368Z,18.60
2018-02-22T22:15:51.677Z,18.80
2018-02-22T22:18:17.975Z,17.90
2018-02-22T22:20:45.009Z,19.10
2018-02-22T22:23:11.313Z,20.03
2018-02-22T22:25:37.598Z,20.20
2018-02-22T22:28:03.921Z,19.80
2018-02-22T22:30:30.927Z,22.10
2018-02-22T22:32:57.222Z,19.63
2018-02-22T22:35:23.491Z,20.87
2018-02-22T22:37:49.797Z,21.80
2018-02-22T22:40:16.089Z,21.23
2018-02-22T22:42:43.124Z,21.13
2018-02-22T22:45:10.140Z,20.10
2018-02-22T22:47:36.429Z,21.40
2018-02-22T22:50:02.745Z,20.70
2018-02-22T22:52:29.794Z,22.40
2018-02-22T22:54:57.061Z,21.30
2018-02-22T22:57:23.348Z,22.40
2018-02-22T22:59:49.647Z,23.03
2018-02-22T23:02:15.948Z,22.57
2018-02-22T23:04:42.261Z,20.97
2018-02-22T23:07:09.306Z,22.20
2018-02-22T23:09:35.649Z,21.30
2018-02-22T23:12:01.958Z,22.57
2018-02-22T23:14:28.995Z,23.50
2018-02-22T23:16:56.043Z,22.07
2018-02-22T23:19:22.364Z,22.13
2018-02-22T23:21:48.659Z,23.73
2018-02-22T23:24:15.010Z,21.33
2018-02-22T23:26:41.321Z,23.10
2018-02-22T23:29:07.628Z,24.27
2018-02-22T23:31:33.922Z,23.30
2018-02-22T23:34:01.027Z,23.97
2018-02-22T23:36:27.325Z,24.37
2018-02-22T23:38:53.771Z,23.17
2018-02-22T23:41:36.871Z,24.23
2018-02-22T23:44:03.950Z,22.93
2018-02-22T23:46:30.267Z,22.80
2018-02-22T23:48:56.555Z,21.90
2018-02-22T23:51:22.837Z,22.90
2018-02-22T23:53:49.151Z,20.93
2018-02-22T23:56:16.176Z,22.87
2018-02-22T23:58:43.214Z,21.80
